Time;durP1;ratioP1;P1;durP2;ratioP2;P2;SDS_P1;SDS_P2;PMS_P1;PMS_P2;Temp;Humidity;BMP_temperature;BMP_pressure;BME280_temperature;BME280_humidity;BME280_pressure;Samples;Min_cycle;Max_cycle;Signal;HPM_P1;HPM_P2
2022/03/09 19:29:25;;;;;;;10.50;7.07;;;;;;;11.28;34.54;101240.75;5057076;28;20410;-72
2022/03/09 19:31:51;;;;;;;10.90;7.57;;;;;;;9.74;36.01;101245.31;5067334;28;20190;-73
2022/03/09 19:34:17;;;;;;;14.10;9.15;;;;;;;8.67;36.75;101244.34;5043273;28;20041;-74
2022/03/09 19:36:42;;;;;;;18.02;10.88;;;;;;;8.02;37.35;101240.59;5065456;28;20103;-73
2022/03/09 19:39:08;;;;;;;15.18;9.75;;;;;;;7.54;37.90;101238.09;5068126;28;20056;-73
2022/03/09 19:41:33;;;;;;;16.83;11.02;;;;;;;7.16;38.64;101239.13;5065096;28;20038;-74
2022/03/09 19:43:58;;;;;;;16.05;10.18;;;;;;;6.94;38.87;101234.59;5067399;28;20075;-72
2022/03/09 19:46:24;;;;;;;15.23;9.68;;;;;;;6.71;38.92;101238.88;5058043;28;20538;-71
2022/03/09 19:48:50;;;;;;;20.10;11.73;;;;;;;6.60;39.44;101242.25;5057412;28;20041;-71
2022/03/09 19:51:16;;;;;;;14.05;9.20;;;;;;;6.45;39.65;101238.91;5061283;28;20072;-71
2022/03/09 19:53:41;;;;;;;17.23;10.27;;;;;;;6.34;39.91;101244.94;5059070;28;20443;-72
2022/03/09 19:56:07;;;;;;;17.85;10.65;;;;;;;6.24;40.00;101243.88;5058200;28;20039;-71
2022/03/09 19:58:32;;;;;;;16.73;10.07;;;;;;;6.15;40.40;101248.00;5055636;28;20033;-72
2022/03/09 20:00:58;;;;;;;18.67;10.77;;;;;;;6.05;40.75;101252.16;5062093;28;20402;-71
2022/03/09 20:03:23;;;;;;;17.75;11.68;;;;;;;5.99;40.89;101238.66;5067555;28;20097;-71
2022/03/09 20:05:49;;;;;;;19.92;11.75;;;;;;;5.93;40.83;101243.34;5063085;28;20099;-72
2022/03/09 20:08:14;;;;;;;20.58;12.32;;;;;;;5.94;41.01;101245.03;5061494;28;20071;-72
2022/03/09 20:10:39;;;;;;;19.58;11.98;;;;;;;5.89;41.34;101254.97;5063821;28;20036;-72
2022/03/09 20:13:05;;;;;;;20.70;11.65;;;;;;;5.86;41.35;101249.09;5063698;28;20132;-71
2022/03/09 20:15:30;;;;;;;18.85;11.55;;;;;;;5.85;41.32;101252.66;5057501;28;20041;-71
2022/03/09 20:17:56;;;;;;;20.80;11.85;;;;;;;5.85;41.49;101258.75;5063766;28;20083;-72
2022/03/09 20:20:22;;;;;;;15.80;10.30;;;;;;;5.82;41.57;101255.50;5068418;28;20129;-72
2022/03/09 20:22:47;;;;;;;18.65;11.35;;;;;;;5.75;41.64;101255.91;5067891;28;20037;-72
2022/03/09 20:25:13;;;;;;;17.90;11.05;;;;;;;5.72;41.73;101264.00;5067118;28;20040;-71
2022/03/09 20:27:40;;;;;;;17.80;10.73;;;;;;;5.64;41.80;101257.56;5063031;28;20041;-71
2022/03/09 20:30:06;;;;;;;18.45;11.60;;;;;;;5.60;42.02;101256.94;5061186;28;20052;-71
2022/03/09 20:32:31;;;;;;;17.17;11.25;;;;;;;5.56;42.28;101257.25;5046553;28;20072;-71
2022/03/09 20:34:57;;;;;;;18.23;10.95;;;;;;;5.52;42.22;101267.06;5063737;28;20037;-72
2022/03/09 20:37:22;;;;;;;15.40;9.95;;;;;;;5.42;42.70;101261.59;5065372;28;20033;-71
2022/03/09 20:39:47;;;;;;;16.60;9.88;;;;;;;5.38;42.49;101267.13;5057688;28;20132;-71
2022/03/09 20:42:13;;;;;;;15.55;10.23;;;;;;;5.32;42.72;101269.22;5047366;28;20049;-72
2022/03/09 20:44:38;;;;;;;20.20;11.20;;;;;;;5.28;42.90;101266.91;5048674;28;20040;-72
2022/03/09 20:47:05;;;;;;;17.63;11.00;;;;;;;5.28;42.79;101264.28;5042475;28;20028;-71
2022/03/09 20:49:30;;;;;;;17.27;11.48;;;;;;;5.25;42.99;101260.06;5047611;28;20056;-72
2022/03/09 20:51:55;;;;;;;16.98;10.85;;;;;;;5.23;43.28;101266.34;5045641;28;20037;-71
2022/03/09 20:54:21;;;;;;;19.33;11.38;;;;;;;5.17;43.43;101262.34;5044888;28;20042;-74
2022/03/09 20:56:46;;;;;;;18.73;11.25;;;;;;;5.13;43.70;101267.91;5050067;28;20040;-72
2022/03/09 20:59:12;;;;;;;18.42;11.77;;;;;;;5.03;44.20;101268.47;5044220;28;20129;-72
2022/03/09 21:01:37;;;;;;;18.33;11.20;;;;;;;5.01;44.01;101269.53;5050549;28;20433;-72
2022/03/09 21:04:03;;;;;;;19.58;11.50;;;;;;;4.98;44.17;101274.94;5054057;28;20029;-72
2022/03/09 21:06:28;;;;;;;20.88;12.13;;;;;;;4.95;44.03;101278.59;5045056;28;20060;-73
2022/03/09 21:08:53;;;;;;;21.17;11.65;;;;;;;4.95;44.11;101275.13;5048586;28;20041;-72
2022/03/09 21:11:19;;;;;;;19.08;11.10;;;;;;;4.97;44.25;101278.50;5044829;28;20038;-72
2022/03/09 21:13:48;;;;;;;20.42;12.52;;;;;;;5.00;44.14;101279.13;5056293;28;20040;-72
2022/03/09 21:16:20;;;;;;;21.13;12.70;;;;;;;5.01;44.28;101278.22;5041299;28;20041;-72
2022/03/09 21:18:52;;;;;;;21.45;12.52;;;;;;;5.00;44.28;101286.16;5045471;28;20029;-71
2022/03/09 21:21:20;;;;;;;21.05;11.90;;;;;;;4.95;44.45;101285.63;5040952;28;20409;-71
2022/03/09 21:23:45;;;;;;;16.80;10.90;;;;;;;4.85;44.83;101285.38;5049941;28;20055;-72
2022/03/09 21:26:10;;;;;;;17.70;11.10;;;;;;;4.81;45.04;101283.88;5050960;28;20040;-72
2022/03/09 21:28:36;;;;;;;19.13;11.43;;;;;;;4.70;45.71;101288.94;5040513;28;20607;-73
2022/03/09 21:31:02;;;;;;;20.35;11.45;;;;;;;4.70;45.16;101289.78;5041683;28;20120;-72
2022/03/09 21:33:27;;;;;;;21.77;12.05;;;;;;;4.66;45.44;101286.50;5034972;28;20037;-71
2022/03/09 21:35:52;;;;;;;19.58;10.98;;;;;;;4.72;44.91;101281.81;5043172;28;20140;-71
2022/03/09 21:38:18;;;;;;;19.38;11.70;;;;;;;4.83;44.46;101288.06;5043912;28;20564;-71
2022/03/09 21:40:43;;;;;;;17.10;10.70;;;;;;;4.81;44.42;101295.19;5053838;28;20037;-72
2022/03/09 21:43:13;;;;;;;17.42;10.50;;;;;;;4.79;44.39;101291.84;5051473;28;20508;-72
2022/03/09 21:45:39;;;;;;;15.80;9.87;;;;;;;4.79;44.19;101296.22;5052056;28;20033;-71
2022/03/09 21:48:04;;;;;;;17.20;10.35;;;;;;;4.82;44.13;101293.44;5055808;28;20103;-72
2022/03/09 21:50:30;;;;;;;16.92;10.48;;;;;;;4.86;44.04;101287.03;5045137;28;20125;-72
2022/03/09 21:52:55;;;;;;;16.50;10.23;;;;;;;4.84;44.10;101295.00;5048814;28;20037;-72
2022/03/09 21:55:20;;;;;;;15.98;10.68;;;;;;;4.83;44.41;101293.31;5046597;28;20040;-71
2022/03/09 21:57:46;;;;;;;15.88;10.65;;;;;;;4.81;44.31;101287.31;5044961;28;20049;-71
2022/03/09 22:00:11;;;;;;;17.42;10.15;;;;;;;4.80;44.16;101292.69;5044648;28;20037;-72
2022/03/09 22:02:38;;;;;;;16.40;10.25;;;;;;;4.74;44.36;101283.41;5039287;28;20036;-71
2022/03/09 22:05:03;;;;;;;15.63;9.65;;;;;;;4.72;44.27;101287.91;5040560;28;20034;-72
2022/03/09 22:07:29;;;;;;;13.38;8.48;;;;;;;4.61;44.21;101287.72;5044060;28;20398;-72
2022/03/09 22:09:54;;;;;;;11.15;6.72;;;;;;;4.44;44.26;101292.22;5057688;28;20501;-71
2022/03/09 22:12:19;;;;;;;13.85;7.97;;;;;;;4.25;44.67;101294.28;5062673;28;20048;-72
2022/03/09 22:14:45;;;;;;;13.80;8.43;;;;;;;4.09;45.24;101291.72;5047619;28;20042;-72
2022/03/09 22:17:10;;;;;;;15.00;8.52;;;;;;;4.02;45.31;101287.78;5054119;28;20041;-72
2022/03/09 22:19:35;;;;;;;12.55;8.02;;;;;;;3.90;45.52;101284.09;5048840;28;20041;-72
2022/03/09 22:22:01;;;;;;;13.98;8.27;;;;;;;3.79;45.74;101287.38;5037810;28;20116;-72
2022/03/09 22:24:26;;;;;;;13.10;8.27;;;;;;;3.81;45.73;101287.25;5044254;28;20048;-71
2022/03/09 22:26:51;;;;;;;14.68;8.85;;;;;;;3.76;45.88;101282.28;5049248;28;20401;-71
2022/03/09 22:29:17;;;;;;;11.85;7.55;;;;;;;3.65;45.92;101294.31;5043867;28;20060;-71
2022/03/09 22:31:42;;;;;;;10.98;6.65;;;;;;;3.47;45.99;101293.59;5049294;28;20091;-71
2022/03/09 22:34:07;;;;;;;9.68;5.90;;;;;;;3.32;46.02;101292.69;5054614;28;20025;-71
2022/03/09 22:36:34;;;;;;;12.23;7.20;;;;;;;3.23;46.45;101294.06;5041761;28;20041;-72
2022/03/09 22:39:01;;;;;;;12.30;7.70;;;;;;;3.14;46.65;101287.56;5048694;28;20037;-71
2022/03/09 22:41:26;;;;;;;12.88;7.70;;;;;;;3.03;46.79;101284.72;5058424;28;20544;-71
2022/03/09 22:43:52;;;;;;;11.75;7.15;;;;;;;2.96;47.04;101288.59;5055611;28;20060;-71
2022/03/09 22:46:17;;;;;;;10.43;6.47;;;;;;;2.83;47.08;101288.41;5045032;28;20041;-71
2022/03/09 22:48:42;;;;;;;10.57;6.97;;;;;;;2.73;47.76;101293.28;5038666;28;20494;-71
2022/03/09 22:51:08;;;;;;;13.63;8.27;;;;;;;2.62;47.88;101293.03;5048546;28;20034;-71
2022/03/09 22:53:33;;;;;;;14.15;8.27;;;;;;;2.55;48.32;101300.34;5045299;28;20037;-72
2022/03/09 22:55:59;;;;;;;13.75;8.20;;;;;;;2.51;48.06;101303.19;5048092;28;20131;-71
2022/03/09 22:58:24;;;;;;;12.73;7.80;;;;;;;2.46;48.24;101294.75;5043119;28;20037;-71
2022/03/09 23:00:51;;;;;;;14.52;8.18;;;;;;;2.45;48.43;101298.28;5050908;28;20506;-71
2022/03/09 23:03:16;;;;;;;13.27;8.65;;;;;;;2.42;48.73;101298.44;5047203;28;20110;-72
2022/03/09 23:05:42;;;;;;;14.38;8.23;;;;;;;2.36;48.80;101303.97;5048845;28;20033;-71
2022/03/09 23:08:13;;;;;;;12.32;7.40;;;;;;;2.27;48.69;101302.69;5042241;28;20052;-71
2022/03/09 23:10:40;;;;;;;12.48;7.13;;;;;;;2.17;49.39;101310.16;5043695;28;20049;-71
2022/03/09 23:13:08;;;;;;;12.15;7.43;;;;;;;2.11;49.84;101302.63;5042491;28;20449;-71
2022/03/09 23:15:35;;;;;;;16.52;9.63;;;;;;;2.08;51.22;101313.25;5046480;28;20036;-73
2022/03/09 23:18:00;;;;;;;16.80;10.35;;;;;;;2.07;51.19;101322.84;5052326;28;20049;-73
2022/03/09 23:20:27;;;;;;;17.13;9.48;;;;;;;2.05;51.67;101315.97;5040852;28;20037;-72
2022/03/09 23:22:54;;;;;;;16.25;10.00;;;;;;;2.00;51.48;101316.25;5047648;28;20037;-71
2022/03/09 23:25:22;;;;;;;14.18;8.32;;;;;;;1.99;51.54;101311.94;5037854;28;20029;-72
2022/03/09 23:27:47;;;;;;;15.63;8.85;;;;;;;1.92;51.47;101314.00;5056477;28;20099;-73
2022/03/09 23:30:13;;;;;;;14.73;9.05;;;;;;;1.84;52.44;101315.31;5049905;28;20037;-71
2022/03/09 23:32:39;;;;;;;12.50;7.97;;;;;;;1.73;51.80;101328.03;5041353;28;20033;-72
2022/03/09 23:35:05;;;;;;;12.75;7.70;;;;;;;1.62;52.09;101318.09;5045199;28;20042;-71
2022/03/09 23:37:31;;;;;;;12.52;7.40;;;;;;;1.54;52.20;101325.47;5050541;28;20076;-71
2022/03/09 23:39:56;;;;;;;12.60;6.72;;;;;;;1.44;52.06;101328.50;5047165;28;20070;-71
2022/03/09 23:42:22;;;;;;;14.07;8.43;;;;;;;1.35;52.90;101328.09;5038243;28;20041;-71
2022/03/09 23:44:47;;;;;;;13.75;8.63;;;;;;;1.26;53.07;101322.44;5047416;28;20076;-71
2022/03/09 23:47:13;;;;;;;14.55;9.38;;;;;;;1.24;53.06;101328.59;5045519;28;20118;-72
2022/03/09 23:49:38;;;;;;;18.10;10.80;;;;;;;1.20;53.55;101329.69;5049460;28;20038;-71
2022/03/09 23:52:04;;;;;;;14.45;8.80;;;;;;;1.18;53.85;101328.91;5052712;28;20472;-71
2022/03/09 23:54:29;;;;;;;13.52;8.35;;;;;;;1.15;53.38;101327.28;5047753;28;20033;-72
2022/03/09 23:56:54;;;;;;;11.35;6.72;;;;;;;1.13;53.61;101329.13;5049932;28;20264;-71
2022/03/09 23:59:19;;;;;;;11.57;7.38;;;;;;;1.09;53.56;101331.94;5048782;28;20029;-71
